sensor_id;sensor_type;location;lat;lon;timestamp;P1;durP1;ratioP1;P2;durP2;ratioP2
38487;SDS011;57384;51.986;4.458;2023-12-07T00:00:12;3.10;;;3.00;;
38487;SDS011;57384;51.986;4.458;2023-12-07T00:03:08;3.35;;;3.25;;
38487;SDS011;57384;51.986;4.458;2023-12-07T00:06:10;3.78;;;3.58;;
38487;SDS011;57384;51.986;4.458;2023-12-07T00:09:47;3.60;;;3.50;;
38487;SDS011;57384;51.986;4.458;2023-12-07T00:16:11;3.40;;;3.30;;
38487;SDS011;57384;51.986;4.458;2023-12-07T00:19:31;3.05;;;2.95;;
38487;SDS011;57384;51.986;4.458;2023-12-07T00:22:34;2.85;;;2.75;;
38487;SDS011;57384;51.986;4.458;2023-12-07T00:25:56;3.38;;;3.28;;
38487;SDS011;57384;51.986;4.458;2023-12-07T00:28:43;3.60;;;3.50;;
38487;SDS011;57384;51.986;4.458;2023-12-07T00:31:50;3.33;;;3.13;;
38487;SDS011;57384;51.986;4.458;2023-12-07T00:34:56;2.78;;;2.67;;
38487;SDS011;57384;51.986;4.458;2023-12-07T00:37:54;3.40;;;3.30;;
38487;SDS011;57384;51.986;4.458;2023-12-07T00:40:43;4.57;;;4.28;;
38487;SDS011;57384;51.986;4.458;2023-12-07T00:54:01;3.67;;;3.58;;
38487;SDS011;57384;51.986;4.458;2023-12-07T01:00:22;3.50;;;3.40;;
38487;SDS011;57384;51.986;4.458;2023-12-07T01:03:58;2.90;;;2.80;;
38487;SDS011;57384;51.986;4.458;2023-12-07T01:14:15;2.90;;;2.80;;
38487;SDS011;57384;51.986;4.458;2023-12-07T01:21:01;4.22;;;4.13;;
38487;SDS011;57384;51.986;4.458;2023-12-07T01:31:29;3.42;;;3.33;;
38487;SDS011;57384;51.986;4.458;2023-12-07T01:41:26;3.95;;;3.75;;
38487;SDS011;57384;51.986;4.458;2023-12-07T01:51:20;3.13;;;3.03;;
38487;SDS011;57384;51.986;4.458;2023-12-07T01:54:18;2.50;;;2.40;;
38487;SDS011;57384;51.986;4.458;2023-12-07T01:57:23;2.80;;;2.70;;
38487;SDS011;57384;51.986;4.458;2023-12-07T02:00:34;3.85;;;3.75;;
38487;SDS011;57384;51.986;4.458;2023-12-07T02:26:52;2.90;;;2.80;;
38487;SDS011;57384;51.986;4.458;2023-12-07T02:33:23;2.72;;;2.63;;
38487;SDS011;57384;51.986;4.458;2023-12-07T02:39:42;2.95;;;2.85;;
38487;SDS011;57384;51.986;4.458;2023-12-07T02:42:53;6.65;;;4.05;;
38487;SDS011;57384;51.986;4.458;2023-12-07T02:45:50;3.53;;;3.35;;
38487;SDS011;57384;51.986;4.458;2023-12-07T03:02:48;3.97;;;3.78;;
38487;SDS011;57384;51.986;4.458;2023-12-07T03:19:39;3.97;;;3.78;;
38487;SDS011;57384;51.986;4.458;2023-12-07T03:25:58;3.42;;;3.25;;
38487;SDS011;57384;51.986;4.458;2023-12-07T03:29:08;4.10;;;3.85;;
38487;SDS011;57384;51.986;4.458;2023-12-07T03:42:27;6.82;;;6.32;;
38487;SDS011;57384;51.986;4.458;2023-12-07T03:49:09;4.55;;;4.35;;
38487;SDS011;57384;51.986;4.458;2023-12-07T03:56:11;3.58;;;3.38;;
38487;SDS011;57384;51.986;4.458;2023-12-07T03:59:16;3.25;;;3.15;;
38487;SDS011;57384;51.986;4.458;2023-12-07T04:02:39;4.32;;;4.13;;
38487;SDS011;57384;51.986;4.458;2023-12-07T04:05:43;4.88;;;4.55;;
38487;SDS011;57384;51.986;4.458;2023-12-07T04:15:22;4.55;;;4.35;;
38487;SDS011;57384;51.986;4.458;2023-12-07T04:18:27;3.35;;;3.15;;
38487;SDS011;57384;51.986;4.458;2023-12-07T04:25:03;4.80;;;4.60;;
38487;SDS011;57384;51.986;4.458;2023-12-07T04:27:48;2.90;;;2.80;;
38487;SDS011;57384;51.986;4.458;2023-12-07T04:41:29;5.57;;;5.28;;
38487;SDS011;57384;51.986;4.458;2023-12-07T04:44:52;3.78;;;3.67;;
38487;SDS011;57384;51.986;4.458;2023-12-07T04:51:19;4.78;;;4.47;;
38487;SDS011;57384;51.986;4.458;2023-12-07T05:11:48;4.05;;;3.83;;
38487;SDS011;57384;51.986;4.458;2023-12-07T05:15:01;4.13;;;3.92;;
38487;SDS011;57384;51.986;4.458;2023-12-07T05:17:57;4.70;;;4.50;;
38487;SDS011;57384;51.986;4.458;2023-12-07T05:21:02;5.00;;;4.80;;
38487;SDS011;57384;51.986;4.458;2023-12-07T05:23:52;4.90;;;4.70;;
38487;SDS011;57384;51.986;4.458;2023-12-07T05:26:55;4.40;;;4.20;;
38487;SDS011;57384;51.986;4.458;2023-12-07T05:29:53;3.83;;;3.72;;
38487;SDS011;57384;51.986;4.458;2023-12-07T05:33:30;3.42;;;3.25;;
38487;SDS011;57384;51.986;4.458;2023-12-07T05:36:23;3.45;;;3.35;;
38487;SDS011;57384;51.986;4.458;2023-12-07T05:42:49;4.15;;;3.95;;
38487;SDS011;57384;51.986;4.458;2023-12-07T05:45:57;4.35;;;4.15;;
38487;SDS011;57384;51.986;4.458;2023-12-07T05:52:06;4.47;;;4.28;;
38487;SDS011;57384;51.986;4.458;2023-12-07T05:55:09;4.25;;;4.05;;
38487;SDS011;57384;51.986;4.458;2023-12-07T05:58:14;4.85;;;4.65;;
38487;SDS011;57384;51.986;4.458;2023-12-07T06:01:11;3.45;;;3.35;;
38487;SDS011;57384;51.986;4.458;2023-12-07T06:04:11;4.22;;;4.03;;
38487;SDS011;57384;51.986;4.458;2023-12-07T06:07:04;3.65;;;3.55;;
38487;SDS011;57384;51.986;4.458;2023-12-07T06:19:20;6.63;;;4.95;;
38487;SDS011;57384;51.986;4.458;2023-12-07T06:22:07;4.47;;;3.83;;
38487;SDS011;57384;51.986;4.458;2023-12-07T06:34:47;5.90;;;5.70;;
38487;SDS011;57384;51.986;4.458;2023-12-07T06:38:06;4.38;;;4.07;;
38487;SDS011;57384;51.986;4.458;2023-12-07T06:44:22;3.65;;;3.55;;
38487;SDS011;57384;51.986;4.458;2023-12-07T06:47:08;4.82;;;4.63;;
38487;SDS011;57384;51.986;4.458;2023-12-07T06:49:52;5.53;;;5.23;;
38487;SDS011;57384;51.986;4.458;2023-12-07T06:52:37;3.53;;;3.38;;
38487;SDS011;57384;51.986;4.458;2023-12-07T06:55:22;5.25;;;4.88;;
38487;SDS011;57384;51.986;4.458;2023-12-07T06:58:06;4.35;;;4.25;;
38487;SDS011;57384;51.986;4.458;2023-12-07T07:00:50;5.32;;;5.05;;
38487;SDS011;57384;51.986;4.458;2023-12-07T07:03:36;4.93;;;4.68;;
38487;SDS011;57384;51.986;4.458;2023-12-07T07:06:20;4.25;;;4.05;;
38487;SDS011;57384;51.986;4.458;2023-12-07T07:09:04;3.20;;;3.10;;
38487;SDS011;57384;51.986;4.458;2023-12-07T07:11:48;4.13;;;3.92;;
38487;SDS011;57384;51.986;4.458;2023-12-07T07:14:32;5.35;;;3.80;;
38487;SDS011;57384;51.986;4.458;2023-12-07T07:17:16;5.05;;;4.85;;
38487;SDS011;57384;51.986;4.458;2023-12-07T07:20:00;4.22;;;4.13;;
38487;SDS011;57384;51.986;4.458;2023-12-07T07:22:44;5.30;;;5.05;;
38487;SDS011;57384;51.986;4.458;2023-12-07T07:25:29;3.70;;;3.47;;
38487;SDS011;57384;51.986;4.458;2023-12-07T07:28:13;4.10;;;4.00;;
38487;SDS011;57384;51.986;4.458;2023-12-07T07:30:57;10.68;;;5.43;;
38487;SDS011;57384;51.986;4.458;2023-12-07T07:33:41;3.85;;;3.65;;
38487;SDS011;57384;51.986;4.458;2023-12-07T07:36:25;3.83;;;3.53;;
38487;SDS011;57384;51.986;4.458;2023-12-07T07:39:09;4.30;;;4.00;;
38487;SDS011;57384;51.986;4.458;2023-12-07T07:41:53;5.22;;;4.93;;
38487;SDS011;57384;51.986;4.458;2023-12-07T07:44:38;4.05;;;3.92;;
38487;SDS011;57384;51.986;4.458;2023-12-07T07:47:22;4.88;;;4.68;;
38487;SDS011;57384;51.986;4.458;2023-12-07T07:50:06;4.55;;;4.35;;
38487;SDS011;57384;51.986;4.458;2023-12-07T07:52:50;4.22;;;4.03;;
38487;SDS011;57384;51.986;4.458;2023-12-07T07:55:34;4.82;;;4.63;;
38487;SDS011;57384;51.986;4.458;2023-12-07T07:58:18;3.20;;;3.10;;
38487;SDS011;57384;51.986;4.458;2023-12-07T08:01:02;3.95;;;3.85;;
38487;SDS011;57384;51.986;4.458;2023-12-07T08:03:46;4.20;;;3.97;;
38487;SDS011;57384;51.986;4.458;2023-12-07T08:06:30;5.32;;;5.13;;
38487;SDS011;57384;51.986;4.458;2023-12-07T08:09:15;3.08;;;2.97;;
38487;SDS011;57384;51.986;4.458;2023-12-07T08:11:59;4.78;;;4.57;;
38487;SDS011;57384;51.986;4.458;2023-12-07T08:14:43;4.43;;;4.07;;
38487;SDS011;57384;51.986;4.458;2023-12-07T08:17:27;3.80;;;3.65;;
38487;SDS011;57384;51.986;4.458;2023-12-07T08:20:11;3.40;;;3.30;;
38487;SDS011;57384;51.986;4.458;2023-12-07T08:22:55;6.15;;;5.75;;
38487;SDS011;57384;51.986;4.458;2023-12-07T08:25:39;4.25;;;4.15;;
38487;SDS011;57384;51.986;4.458;2023-12-07T08:28:23;3.85;;;3.60;;
38487;SDS011;57384;51.986;4.458;2023-12-07T08:31:07;4.63;;;4.32;;
38487;SDS011;57384;51.986;4.458;2023-12-07T08:33:51;4.22;;;4.03;;
38487;SDS011;57384;51.986;4.458;2023-12-07T08:36:35;4.18;;;4.03;;
38487;SDS011;57384;51.986;4.458;2023-12-07T08:39:19;4.75;;;4.55;;
38487;SDS011;57384;51.986;4.458;2023-12-07T08:42:03;4.65;;;4.38;;
38487;SDS011;57384;51.986;4.458;2023-12-07T08:44:49;9.82;;;6.53;;
38487;SDS011;57384;51.986;4.458;2023-12-07T08:47:33;3.78;;;3.67;;
38487;SDS011;57384;51.986;4.458;2023-12-07T08:50:17;4.45;;;4.28;;
38487;SDS011;57384;51.986;4.458;2023-12-07T08:53:01;6.25;;;5.72;;
38487;SDS011;57384;51.986;4.458;2023-12-07T08:55:45;4.40;;;4.20;;
38487;SDS011;57384;51.986;4.458;2023-12-07T08:58:32;4.33;;;4.10;;
38487;SDS011;57384;51.986;4.458;2023-12-07T09:01:16;10.27;;;6.03;;
38487;SDS011;57384;51.986;4.458;2023-12-07T09:04:00;5.63;;;5.43;;
38487;SDS011;57384;51.986;4.458;2023-12-07T09:06:44;4.95;;;4.72;;
38487;SDS011;57384;51.986;4.458;2023-12-07T09:09:28;4.85;;;4.65;;
38487;SDS011;57384;51.986;4.458;2023-12-07T09:12:15;5.32;;;4.93;;
38487;SDS011;57384;51.986;4.458;2023-12-07T09:14:59;8.00;;;4.63;;
38487;SDS011;57384;51.986;4.458;2023-12-07T09:17:43;4.68;;;4.47;;
38487;SDS011;57384;51.986;4.458;2023-12-07T09:20:27;6.85;;;5.97;;
38487;SDS011;57384;51.986;4.458;2023-12-07T09:23:12;4.47;;;4.30;;
38487;SDS011;57384;51.986;4.458;2023-12-07T09:25:56;5.97;;;5.68;;
38487;SDS011;57384;51.986;4.458;2023-12-07T09:28:40;5.43;;;5.22;;
38487;SDS011;57384;51.986;4.458;2023-12-07T09:31:24;4.88;;;4.63;;
38487;SDS011;57384;51.986;4.458;2023-12-07T09:34:08;6.57;;;6.22;;
38487;SDS011;57384;51.986;4.458;2023-12-07T09:37:04;6.10;;;5.68;;
38487;SDS011;57384;51.986;4.458;2023-12-07T09:39:51;7.40;;;7.03;;
38487;SDS011;57384;51.986;4.458;2023-12-07T09:42:35;7.25;;;6.88;;
38487;SDS011;57384;51.986;4.458;2023-12-07T09:45:20;6.70;;;6.30;;
38487;SDS011;57384;51.986;4.458;2023-12-07T09:48:05;7.40;;;6.78;;
38487;SDS011;57384;51.986;4.458;2023-12-07T09:50:50;7.25;;;6.65;;
38487;SDS011;57384;51.986;4.458;2023-12-07T09:53:36;7.00;;;6.70;;
38487;SDS011;57384;51.986;4.458;2023-12-07T09:56:23;5.22;;;5.03;;
38487;SDS011;57384;51.986;4.458;2023-12-07T09:59:07;5.90;;;5.60;;
38487;SDS011;57384;51.986;4.458;2023-12-07T10:01:51;5.57;;;5.38;;
38487;SDS011;57384;51.986;4.458;2023-12-07T10:04:35;6.82;;;6.43;;
38487;SDS011;57384;51.986;4.458;2023-12-07T10:07:20;7.47;;;6.93;;
38487;SDS011;57384;51.986;4.458;2023-12-07T10:10:17;5.68;;;5.47;;
38487;SDS011;57384;51.986;4.458;2023-12-07T10:13:02;7.18;;;6.88;;
38487;SDS011;57384;51.986;4.458;2023-12-07T10:15:46;6.63;;;6.32;;
38487;SDS011;57384;51.986;4.458;2023-12-07T10:18:15;6.13;;;5.80;;
38487;SDS011;57384;51.986;4.458;2023-12-07T10:20:49;5.38;;;5.18;;
38487;SDS011;57384;51.986;4.458;2023-12-07T10:23:15;5.90;;;5.60;;
38487;SDS011;57384;51.986;4.458;2023-12-07T10:25:55;5.35;;;5.05;;
38487;SDS011;57384;51.986;4.458;2023-12-07T10:28:23;7.28;;;6.88;;
38487;SDS011;57384;51.986;4.458;2023-12-07T10:30:51;5.03;;;4.82;;
38487;SDS011;57384;51.986;4.458;2023-12-07T10:33:20;5.32;;;5.13;;
38487;SDS011;57384;51.986;4.458;2023-12-07T10:35:49;7.63;;;6.95;;
38487;SDS011;57384;51.986;4.458;2023-12-07T10:38:15;6.63;;;6.35;;
38487;SDS011;57384;51.986;4.458;2023-12-07T10:40:43;5.90;;;5.70;;
38487;SDS011;57384;51.986;4.458;2023-12-07T10:43:10;6.90;;;6.47;;
38487;SDS011;57384;51.986;4.458;2023-12-07T10:45:41;8.88;;;8.38;;
38487;SDS011;57384;51.986;4.458;2023-12-07T10:50:41;7.55;;;7.25;;
38487;SDS011;57384;51.986;4.458;2023-12-07T10:53:12;6.60;;;6.40;;
38487;SDS011;57384;51.986;4.458;2023-12-07T10:55:47;6.88;;;6.47;;
38487;SDS011;57384;51.986;4.458;2023-12-07T10:58:22;6.25;;;6.03;;
38487;SDS011;57384;51.986;4.458;2023-12-07T11:00:49;7.70;;;7.22;;
38487;SDS011;57384;51.986;4.458;2023-12-07T11:03:16;7.72;;;7.53;;
38487;SDS011;57384;51.986;4.458;2023-12-07T11:05:46;6.10;;;5.90;;
38487;SDS011;57384;51.986;4.458;2023-12-07T11:08:27;6.00;;;5.80;;
38487;SDS011;57384;51.986;4.458;2023-12-07T11:11:10;7.22;;;6.93;;
38487;SDS011;57384;51.986;4.458;2023-12-07T11:13:45;5.80;;;5.60;;
38487;SDS011;57384;51.986;4.458;2023-12-07T11:18:56;6.13;;;5.83;;
38487;SDS011;57384;51.986;4.458;2023-12-07T11:23:50;6.63;;;6.32;;
38487;SDS011;57384;51.986;4.458;2023-12-07T11:26:30;5.60;;;5.30;;
38487;SDS011;57384;51.986;4.458;2023-12-07T11:28:58;5.10;;;4.93;;
38487;SDS011;57384;51.986;4.458;2023-12-07T11:31:25;7.22;;;6.93;;
38487;SDS011;57384;51.986;4.458;2023-12-07T11:34:05;6.55;;;6.35;;
38487;SDS011;57384;51.986;4.458;2023-12-07T11:36:32;6.95;;;6.45;;
38487;SDS011;57384;51.986;4.458;2023-12-07T11:56:22;7.43;;;7.22;;
38487;SDS011;57384;51.986;4.458;2023-12-07T13:34:29;5.22;;;5.03;;
38487;SDS011;57384;51.986;4.458;2023-12-07T13:51:49;6.32;;;6.05;;
38487;SDS011;57384;51.986;4.458;2023-12-07T13:55:26;5.25;;;4.95;;
38487;SDS011;57384;51.986;4.458;2023-12-07T14:01:57;5.10;;;4.70;;
38487;SDS011;57384;51.986;4.458;2023-12-07T14:05:14;5.13;;;4.93;;
38487;SDS011;57384;51.986;4.458;2023-12-07T14:08:35;3.88;;;3.78;;
38487;SDS011;57384;51.986;4.458;2023-12-07T14:15:42;6.03;;;5.72;;
38487;SDS011;57384;51.986;4.458;2023-12-07T14:19:02;4.82;;;4.65;;
38487;SDS011;57384;51.986;4.458;2023-12-07T14:29:15;4.35;;;4.15;;
38487;SDS011;57384;51.986;4.458;2023-12-07T14:39:26;6.22;;;5.93;;
38487;SDS011;57384;51.986;4.458;2023-12-07T14:42:17;5.35;;;5.15;;
38487;SDS011;57384;51.986;4.458;2023-12-07T14:45:04;4.75;;;4.55;;
38487;SDS011;57384;51.986;4.458;2023-12-07T14:47:31;4.32;;;4.13;;
38487;SDS011;57384;51.986;4.458;2023-12-07T14:50:01;6.15;;;5.90;;
38487;SDS011;57384;51.986;4.458;2023-12-07T14:52:28;4.88;;;4.68;;
38487;SDS011;57384;51.986;4.458;2023-12-07T14:57:55;4.75;;;4.55;;
38487;SDS011;57384;51.986;4.458;2023-12-07T15:00:22;3.83;;;3.72;;
38487;SDS011;57384;51.986;4.458;2023-12-07T15:02:51;5.28;;;4.97;;
38487;SDS011;57384;51.986;4.458;2023-12-07T15:05:37;2.78;;;2.67;;
38487;SDS011;57384;51.986;4.458;2023-12-07T15:08:23;5.50;;;5.30;;
38487;SDS011;57384;51.986;4.458;2023-12-07T15:11:09;4.78;;;4.57;;
38487;SDS011;57384;51.986;4.458;2023-12-07T15:13:35;3.85;;;3.75;;
38487;SDS011;57384;51.986;4.458;2023-12-07T15:16:02;3.45;;;3.35;;
38487;SDS011;57384;51.986;4.458;2023-12-07T15:18:29;4.70;;;4.40;;
38487;SDS011;57384;51.986;4.458;2023-12-07T15:20:56;4.03;;;3.92;;
38487;SDS011;57384;51.986;4.458;2023-12-07T15:23:28;3.75;;;3.65;;
38487;SDS011;57384;51.986;4.458;2023-12-07T15:25:55;3.33;;;3.23;;
38487;SDS011;57384;51.986;4.458;2023-12-07T15:28:24;5.25;;;4.80;;
38487;SDS011;57384;51.986;4.458;2023-12-07T15:31:08;4.63;;;4.38;;
38487;SDS011;57384;51.986;4.458;2023-12-07T15:33:54;3.50;;;3.40;;
38487;SDS011;57384;51.986;4.458;2023-12-07T15:36:40;4.53;;;4.32;;
38487;SDS011;57384;51.986;4.458;2023-12-07T15:39:27;3.75;;;3.55;;
38487;SDS011;57384;51.986;4.458;2023-12-07T15:41:53;3.10;;;3.00;;
38487;SDS011;57384;51.986;4.458;2023-12-07T15:44:20;3.92;;;3.72;;
38487;SDS011;57384;51.986;4.458;2023-12-07T15:46:46;3.55;;;3.40;;
38487;SDS011;57384;51.986;4.458;2023-12-07T15:49:13;4.65;;;4.40;;
38487;SDS011;57384;51.986;4.458;2023-12-07T15:51:39;3.42;;;3.33;;
38487;SDS011;57384;51.986;4.458;2023-12-07T15:54:06;4.63;;;4.43;;
38487;SDS011;57384;51.986;4.458;2023-12-07T15:56:32;2.85;;;2.72;;
38487;SDS011;57384;51.986;4.458;2023-12-07T15:58:59;3.45;;;3.35;;
38487;SDS011;57384;51.986;4.458;2023-12-07T16:01:25;4.55;;;4.35;;
38487;SDS011;57384;51.986;4.458;2023-12-07T16:03:52;4.68;;;4.47;;
38487;SDS011;57384;51.986;4.458;2023-12-07T16:06:18;4.50;;;4.30;;
38487;SDS011;57384;51.986;4.458;2023-12-07T16:08:48;4.82;;;4.55;;
38487;SDS011;57384;51.986;4.458;2023-12-07T16:11:14;3.15;;;3.05;;
38487;SDS011;57384;51.986;4.458;2023-12-07T16:13:41;4.50;;;4.20;;
38487;SDS011;57384;51.986;4.458;2023-12-07T16:16:07;4.28;;;4.15;;
38487;SDS011;57384;51.986;4.458;2023-12-07T16:18:34;6.25;;;5.85;;
38487;SDS011;57384;51.986;4.458;2023-12-07T16:21:03;6.60;;;5.97;;
38487;SDS011;57384;51.986;4.458;2023-12-07T16:23:30;4.22;;;4.13;;
38487;SDS011;57384;51.986;4.458;2023-12-07T16:25:56;5.47;;;4.95;;
38487;SDS011;57384;51.986;4.458;2023-12-07T16:28:23;5.47;;;5.28;;
38487;SDS011;57384;51.986;4.458;2023-12-07T16:30:49;4.78;;;4.53;;
38487;SDS011;57384;51.986;4.458;2023-12-07T16:33:16;5.25;;;4.95;;
38487;SDS011;57384;51.986;4.458;2023-12-07T16:35:42;5.32;;;4.90;;
38487;SDS011;57384;51.986;4.458;2023-12-07T16:38:09;5.72;;;5.43;;
38487;SDS011;57384;51.986;4.458;2023-12-07T16:40:35;5.60;;;5.20;;
38487;SDS011;57384;51.986;4.458;2023-12-07T16:43:02;6.68;;;6.18;;
38487;SDS011;57384;51.986;4.458;2023-12-07T16:45:28;4.68;;;4.47;;
38487;SDS011;57384;51.986;4.458;2023-12-07T16:47:55;4.13;;;4.03;;
38487;SDS011;57384;51.986;4.458;2023-12-07T16:50:21;4.78;;;4.57;;
38487;SDS011;57384;51.986;4.458;2023-12-07T16:52:48;4.57;;;4.28;;
38487;SDS011;57384;51.986;4.458;2023-12-07T16:55:14;3.65;;;3.55;;
38487;SDS011;57384;51.986;4.458;2023-12-07T16:57:41;4.10;;;3.90;;
38487;SDS011;57384;51.986;4.458;2023-12-07T17:00:07;4.15;;;3.95;;
38487;SDS011;57384;51.986;4.458;2023-12-07T17:02:34;5.57;;;5.07;;
38487;SDS011;57384;51.986;4.458;2023-12-07T17:05:01;5.38;;;5.10;;
38487;SDS011;57384;51.986;4.458;2023-12-07T17:07:27;6.38;;;5.43;;
38487;SDS011;57384;51.986;4.458;2023-12-07T17:09:54;4.90;;;4.60;;
38487;SDS011;57384;51.986;4.458;2023-12-07T17:12:20;4.75;;;4.55;;
38487;SDS011;57384;51.986;4.458;2023-12-07T17:14:47;4.43;;;4.15;;
38487;SDS011;57384;51.986;4.458;2023-12-07T17:17:13;4.88;;;4.68;;
38487;SDS011;57384;51.986;4.458;2023-12-07T17:19:40;3.90;;;3.70;;
38487;SDS011;57384;51.986;4.458;2023-12-07T17:22:07;3.50;;;3.30;;
38487;SDS011;57384;51.986;4.458;2023-12-07T17:24:33;3.93;;;3.83;;
38487;SDS011;57384;51.986;4.458;2023-12-07T17:27:00;2.95;;;2.85;;
38487;SDS011;57384;51.986;4.458;2023-12-07T17:29:26;4.60;;;4.38;;
38487;SDS011;57384;51.986;4.458;2023-12-07T17:31:53;3.95;;;3.75;;
38487;SDS011;57384;51.986;4.458;2023-12-07T17:34:19;2.97;;;2.88;;
38487;SDS011;57384;51.986;4.458;2023-12-07T17:36:46;4.68;;;4.47;;
38487;SDS011;57384;51.986;4.458;2023-12-07T17:39:12;6.05;;;5.75;;
38487;SDS011;57384;51.986;4.458;2023-12-07T17:41:39;3.50;;;3.40;;
38487;SDS011;57384;51.986;4.458;2023-12-07T17:44:05;3.47;;;3.38;;
38487;SDS011;57384;51.986;4.458;2023-12-07T17:46:32;4.25;;;4.05;;
38487;SDS011;57384;51.986;4.458;2023-12-07T17:48:58;4.57;;;4.38;;
38487;SDS011;57384;51.986;4.458;2023-12-07T17:51:25;4.00;;;3.80;;
38487;SDS011;57384;51.986;4.458;2023-12-07T17:53:52;5.53;;;5.32;;
38487;SDS011;57384;51.986;4.458;2023-12-07T17:56:21;4.85;;;4.65;;
38487;SDS011;57384;51.986;4.458;2023-12-07T17:58:48;3.45;;;3.35;;
38487;SDS011;57384;51.986;4.458;2023-12-07T18:01:19;4.38;;;4.18;;
38487;SDS011;57384;51.986;4.458;2023-12-07T18:03:46;4.93;;;4.63;;
38487;SDS011;57384;51.986;4.458;2023-12-07T18:06:13;4.40;;;4.20;;
38487;SDS011;57384;51.986;4.458;2023-12-07T18:08:39;4.00;;;3.80;;
38487;SDS011;57384;51.986;4.458;2023-12-07T18:11:06;3.53;;;3.42;;
38487;SDS011;57384;51.986;4.458;2023-12-07T18:13:32;3.28;;;3.17;;
38487;SDS011;57384;51.986;4.458;2023-12-07T18:15:59;3.60;;;3.50;;
38487;SDS011;57384;51.986;4.458;2023-12-07T18:18:25;4.05;;;3.85;;
38487;SDS011;57384;51.986;4.458;2023-12-07T18:20:52;3.78;;;3.67;;
38487;SDS011;57384;51.986;4.458;2023-12-07T18:23:18;2.95;;;2.85;;
38487;SDS011;57384;51.986;4.458;2023-12-07T18:25:45;4.40;;;4.10;;
38487;SDS011;57384;51.986;4.458;2023-12-07T18:28:11;4.25;;;4.05;;
38487;SDS011;57384;51.986;4.458;2023-12-07T18:30:38;3.97;;;3.70;;
38487;SDS011;57384;51.986;4.458;2023-12-07T18:33:04;4.63;;;4.43;;
38487;SDS011;57384;51.986;4.458;2023-12-07T18:35:31;7.55;;;4.88;;
38487;SDS011;57384;51.986;4.458;2023-12-07T18:38:00;2.88;;;2.78;;
38487;SDS011;57384;51.986;4.458;2023-12-07T18:40:27;2.42;;;2.33;;
38487;SDS011;57384;51.986;4.458;2023-12-07T18:42:53;5.18;;;3.92;;
38487;SDS011;57384;51.986;4.458;2023-12-07T18:45:23;2.55;;;2.45;;
38487;SDS011;57384;51.986;4.458;2023-12-07T18:47:53;3.00;;;2.88;;
38487;SDS011;57384;51.986;4.458;2023-12-07T18:50:28;4.28;;;3.90;;
38487;SDS011;57384;51.986;4.458;2023-12-07T19:00:45;3.15;;;3.05;;
38487;SDS011;57384;51.986;4.458;2023-12-07T19:11:14;2.90;;;2.80;;
38487;SDS011;57384;51.986;4.458;2023-12-07T19:21:32;4.53;;;3.08;;
38487;SDS011;57384;51.986;4.458;2023-12-07T19:24:57;3.10;;;3.00;;
38487;SDS011;57384;51.986;4.458;2023-12-07T19:28:07;3.83;;;3.72;;
38487;SDS011;57384;51.986;4.458;2023-12-07T19:31:20;3.75;;;3.45;;
38487;SDS011;57384;51.986;4.458;2023-12-07T20:02:03;2.33;;;2.22;;
38487;SDS011;57384;51.986;4.458;2023-12-07T20:04:55;4.60;;;4.32;;
38487;SDS011;57384;51.986;4.458;2023-12-07T20:08:08;3.17;;;3.08;;
38487;SDS011;57384;51.986;4.458;2023-12-07T20:20:51;3.50;;;3.25;;
38487;SDS011;57384;51.986;4.458;2023-12-07T20:26:31;3.28;;;3.17;;
38487;SDS011;57384;51.986;4.458;2023-12-07T20:29:46;5.63;;;5.15;;
38487;SDS011;57384;51.986;4.458;2023-12-07T20:32:44;2.63;;;2.53;;
38487;SDS011;57384;51.986;4.458;2023-12-07T20:38:48;4.88;;;4.35;;
38487;SDS011;57384;51.986;4.458;2023-12-07T20:41:35;3.42;;;3.33;;
38487;SDS011;57384;51.986;4.458;2023-12-07T20:44:37;2.67;;;2.58;;
38487;SDS011;57384;51.986;4.458;2023-12-07T20:47:29;2.67;;;2.58;;
38487;SDS011;57384;51.986;4.458;2023-12-07T20:53:12;4.15;;;3.97;;
38487;SDS011;57384;51.986;4.458;2023-12-07T20:55:59;2.78;;;2.67;;
38487;SDS011;57384;51.986;4.458;2023-12-07T20:58:49;3.22;;;3.13;;
38487;SDS011;57384;51.986;4.458;2023-12-07T21:01:36;2.77;;;2.67;;
38487;SDS011;57384;51.986;4.458;2023-12-07T21:04:21;3.50;;;3.23;;
38487;SDS011;57384;51.986;4.458;2023-12-07T21:07:11;3.95;;;3.67;;
38487;SDS011;57384;51.986;4.458;2023-12-07T21:10:03;2.85;;;2.75;;
38487;SDS011;57384;51.986;4.458;2023-12-07T21:13:02;2.30;;;2.20;;
38487;SDS011;57384;51.986;4.458;2023-12-07T21:15:46;2.88;;;2.78;;
38487;SDS011;57384;51.986;4.458;2023-12-07T21:18:40;4.57;;;4.28;;
38487;SDS011;57384;51.986;4.458;2023-12-07T21:21:27;3.13;;;3.03;;
38487;SDS011;57384;51.986;4.458;2023-12-07T21:24:17;3.25;;;3.15;;
38487;SDS011;57384;51.986;4.458;2023-12-07T21:27:06;3.95;;;3.75;;
38487;SDS011;57384;51.986;4.458;2023-12-07T21:29:55;2.53;;;2.42;;
38487;SDS011;57384;51.986;4.458;2023-12-07T21:32:39;3.50;;;3.40;;
38487;SDS011;57384;51.986;4.458;2023-12-07T21:35:31;3.00;;;2.90;;
38487;SDS011;57384;51.986;4.458;2023-12-07T21:38:17;2.58;;;2.47;;
38487;SDS011;57384;51.986;4.458;2023-12-07T21:41:06;3.95;;;3.80;;
38487;SDS011;57384;51.986;4.458;2023-12-07T21:43:50;4.45;;;4.20;;
38487;SDS011;57384;51.986;4.458;2023-12-07T21:46:34;3.45;;;3.35;;
38487;SDS011;57384;51.986;4.458;2023-12-07T21:49:22;3.45;;;3.35;;
38487;SDS011;57384;51.986;4.458;2023-12-07T21:52:09;4.50;;;4.25;;
38487;SDS011;57384;51.986;4.458;2023-12-07T21:55:06;3.40;;;3.30;;
38487;SDS011;57384;51.986;4.458;2023-12-07T21:57:51;2.70;;;2.60;;
38487;SDS011;57384;51.986;4.458;2023-12-07T22:00:56;3.10;;;3.00;;
38487;SDS011;57384;51.986;4.458;2023-12-07T22:03:43;3.75;;;3.55;;
38487;SDS011;57384;51.986;4.458;2023-12-07T22:06:28;2.92;;;2.83;;
38487;SDS011;57384;51.986;4.458;2023-12-07T22:09:12;4.05;;;3.67;;
38487;SDS011;57384;51.986;4.458;2023-12-07T22:11:56;3.60;;;3.47;;
38487;SDS011;57384;51.986;4.458;2023-12-07T22:14:40;4.05;;;3.85;;
38487;SDS011;57384;51.986;4.458;2023-12-07T22:17:24;3.67;;;3.58;;
38487;SDS011;57384;51.986;4.458;2023-12-07T22:20:09;3.00;;;2.90;;
38487;SDS011;57384;51.986;4.458;2023-12-07T22:22:53;3.55;;;3.25;;
38487;SDS011;57384;51.986;4.458;2023-12-07T22:25:53;2.17;;;2.08;;
38487;SDS011;57384;51.986;4.458;2023-12-07T22:28:40;2.45;;;2.35;;
38487;SDS011;57384;51.986;4.458;2023-12-07T22:31:33;3.20;;;3.05;;
38487;SDS011;57384;51.986;4.458;2023-12-07T22:34:20;2.17;;;2.08;;
38487;SDS011;57384;51.986;4.458;2023-12-07T22:37:07;2.97;;;2.88;;
38487;SDS011;57384;51.986;4.458;2023-12-07T22:40:00;3.22;;;3.03;;
38487;SDS011;57384;51.986;4.458;2023-12-07T22:42:44;3.05;;;2.95;;
38487;SDS011;57384;51.986;4.458;2023-12-07T22:45:31;2.70;;;2.60;;
38487;SDS011;57384;51.986;4.458;2023-12-07T22:48:21;2.47;;;2.38;;
38487;SDS011;57384;51.986;4.458;2023-12-07T22:51:05;3.57;;;3.37;;
38487;SDS011;57384;51.986;4.458;2023-12-07T22:53:52;3.78;;;3.58;;
38487;SDS011;57384;51.986;4.458;2023-12-07T22:56:39;4.22;;;3.95;;
38487;SDS011;57384;51.986;4.458;2023-12-07T22:59:26;2.97;;;2.78;;
38487;SDS011;57384;51.986;4.458;2023-12-07T23:02:10;3.38;;;3.10;;
38487;SDS011;57384;51.986;4.458;2023-12-07T23:04:57;3.60;;;3.50;;
38487;SDS011;57384;51.986;4.458;2023-12-07T23:07:44;2.90;;;2.80;;
38487;SDS011;57384;51.986;4.458;2023-12-07T23:10:31;3.67;;;3.47;;
38487;SDS011;57384;51.986;4.458;2023-12-07T23:13:15;4.97;;;4.55;;
38487;SDS011;57384;51.986;4.458;2023-12-07T23:15:59;2.53;;;2.42;;
38487;SDS011;57384;51.986;4.458;2023-12-07T23:18:47;3.35;;;3.25;;
38487;SDS011;57384;51.986;4.458;2023-12-07T23:21:34;2.63;;;2.53;;
38487;SDS011;57384;51.986;4.458;2023-12-07T23:24:21;4.47;;;4.15;;
38487;SDS011;57384;51.986;4.458;2023-12-07T23:27:05;2.83;;;2.72;;
38487;SDS011;57384;51.986;4.458;2023-12-07T23:29:49;3.13;;;3.03;;
38487;SDS011;57384;51.986;4.458;2023-12-07T23:32:36;4.50;;;4.20;;
38487;SDS011;57384;51.986;4.458;2023-12-07T23:35:25;2.78;;;2.63;;
38487;SDS011;57384;51.986;4.458;2023-12-07T23:38:09;2.27;;;2.17;;